7.9°F
Current conditions from King Hill
Updated every 5 minutes
 
  Saturday December 20, 2014

Station Historical Data
Daily Summary for April 9, 2012 Units:  Both    English   Metric
« Previous Day
Next Day »
Daily Weekly Monthly Yearly Custom
  High: Low: Average:
Temperature: 45.4 °F /  7.4 °C 37.3 °F /  2.9 °C 41.1 °F /  5.1 °C
Dew Point: 35.9 °F /  2.2 °C 27.3 °F /  -2.6 °C 34.2 °F /  1.2 °C
Humidity: 88% 49% 77%
Wind Speed: 13.0mph /  20.9km/h - 6.6mph /  10.6km/h
Wind Gust: 25.0mph /  40.2km/h - -
Wind- - WSW
Pressure: 29.50 in /  998.9 hPa 29.37 in /  994.5 hPa -
Precipitation: 0.41 in /  10.4 mm    
Historical Graphs
 
 
Tabular Data for April 9, 2012
Time Temperature Dew Point Pressure Wind Wind Speed Wind Gust Humidity Daily Rainfall
00:04 45.4 °F /  7.4 °C 27.4 °F /  -2.6 °C 29.46in /  997.5hPa WSW 7.0mph /  11.3km/h 15.0mph /  24.1km/h 49% 0.00in /  0mm
00:09 45.2 °F /  7.3 °C 27.7 °F /  -2.4 °C 29.46in /  997.5hPa WSW 5.0mph /  8km/h 15.0mph /  24.1km/h 50% 0.00in /  0mm
00:14 45.0 °F /  7.2 °C 27.5 °F /  -2.5 °C 29.45in /  997.2hPa SW 5.0mph /  8km/h 12.0mph /  19.3km/h 50% 0.00in /  0mm
00:19 44.9 °F /  7.2 °C 27.4 °F /  -2.6 °C 29.45in /  997.2hPa WSW 7.0mph /  11.3km/h 11.0mph /  17.7km/h 50% 0.00in /  0mm
00:24 44.9 °F /  7.2 °C 27.4 °F /  -2.6 °C 29.45in /  997.2hPa SW 5.0mph /  8km/h 11.0mph /  17.7km/h 50% 0.00in /  0mm
00:30 44.8 °F /  7.1 °C 27.3 °F /  -2.6 °C 29.45in /  997.2hPa SW 5.0mph /  8km/h 15.0mph /  24.1km/h 50% 0.00in /  0mm
00:40 44.3 °F /  6.8 °C 27.3 °F /  -2.6 °C 29.44in /  996.8hPa SW 5.0mph /  8km/h 11.0mph /  17.7km/h 51% 0.00in /  0mm
00:49 44.1 °F /  6.7 °C 27.6 °F /  -2.4 °C 29.44in /  996.8hPa WSW 6.0mph /  9.7km/h 14.0mph /  22.5km/h 52% 0.00in /  0mm
00:54 44.0 °F /  6.7 °C 28.0 °F /  -2.2 °C 29.44in /  996.8hPa SW 6.0mph /  9.7km/h 11.0mph /  17.7km/h 53% 0.00in /  0mm
01:00 44.0 °F /  6.7 °C 28.4 °F /  -2 °C 29.44in /  996.8hPa SW 6.0mph /  9.7km/h 13.0mph /  20.9km/h 54% 0.00in /  0mm
01:09 43.4 °F /  6.3 °C 28.3 °F /  -2.1 °C 29.43in /  996.5hPa WSW 5.0mph /  8km/h 11.0mph /  17.7km/h 55% 0.00in /  0mm
01:14 43.2 °F /  6.2 °C 29.0 °F /  -1.7 °C 29.43in /  996.5hPa WSW 6.0mph /  9.7km/h 12.0mph /  19.3km/h 57% 0.00in /  0mm
01:19 43.1 °F /  6.2 °C 28.9 °F /  -1.7 °C 29.43in /  996.5hPa SW 6.0mph /  9.7km/h 12.0mph /  19.3km/h 57% 0.00in /  0mm
01:24 42.7 °F /  5.9 °C 29.0 °F /  -1.7 °C 29.43in /  996.5hPa WSW 6.0mph /  9.7km/h 11.0mph /  17.7km/h 58% 0.00in /  0mm
01:29 43.1 °F /  6.2 °C 29.7 °F /  -1.3 °C 29.43in /  996.5hPa SW 8.0mph /  12.9km/h 12.0mph /  19.3km/h 59% 0.00in /  0mm
01:34 43.4 °F /  6.3 °C 30.0 °F /  -1.1 °C 29.43in /  996.5hPa WSW 5.0mph /  8km/h 13.0mph /  20.9km/h 59% 0.00in /  0mm
01:39 43.4 °F /  6.3 °C 30.0 °F /  -1.1 °C 29.42in /  996.2hPa WSW 8.0mph /  12.9km/h 13.0mph /  20.9km/h 59% 0.00in /  0mm
01:44 43.4 °F /  6.3 °C 30.4 °F /  -0.9 °C 29.42in /  996.2hPa WSW 5.0mph /  8km/h 12.0mph /  19.3km/h 60% 0.00in /  0mm
01:54 43.5 °F /  6.4 °C 30.9 °F /  -0.6 °C 29.42in /  996.2hPa SW 7.0mph /  11.3km/h 14.0mph /  22.5km/h 61% 0.00in /  0mm
01:59 43.5 °F /  6.4 °C 30.9 °F /  -0.6 °C 29.42in /  996.2hPa WSW 6.0mph /  9.7km/h 14.0mph /  22.5km/h 61% 0.00in /  0mm
02:04 43.7 °F /  6.5 °C 31.5 °F /  -0.3 °C 29.42in /  996.2hPa WSW 5.0mph /  8km/h 14.0mph /  22.5km/h 62% 0.00in /  0mm
02:14 43.7 °F /  6.5 °C 31.5 °F /  -0.3 °C 29.41in /  995.8hPa WSW 6.0mph /  9.7km/h 13.0mph /  20.9km/h 62% 0.00in /  0mm
02:19 43.7 °F /  6.5 °C 31.9 °F /  -0.1 °C 29.41in /  995.8hPa SW 5.0mph /  8km/h 13.0mph /  20.9km/h 63% 0.00in /  0mm
02:24 43.7 °F /  6.5 °C 32.3 °F /  0.2 °C 29.41in /  995.8hPa WSW 9.0mph /  14.5km/h 14.0mph /  22.5km/h 64% 0.00in /  0mm
02:29 43.9 °F /  6.6 °C 32.5 °F /  0.3 °C 29.41in /  995.8hPa WSW 8.0mph /  12.9km/h 15.0mph /  24.1km/h 64% 0.00in /  0mm
02:34 44.1 °F /  6.7 °C 32.7 °F /  0.4 °C 29.41in /  995.8hPa WSW 7.0mph /  11.3km/h 15.0mph /  24.1km/h 64% 0.00in /  0mm
02:39 44.0 °F /  6.7 °C 32.6 °F /  0.3 °C 29.41in /  995.8hPa SW 7.0mph /  11.3km/h 12.0mph /  19.3km/h 64% 0.00in /  0mm
02:44 44.0 °F /  6.7 °C 32.6 °F /  0.3 °C 29.40in /  995.5hPa WSW 6.0mph /  9.7km/h 13.0mph /  20.9km/h 64% 0.00in /  0mm
02:49 43.9 °F /  6.6 °C 32.9 °F /  0.5 °C 29.40in /  995.5hPa WSW 8.0mph /  12.9km/h 13.0mph /  20.9km/h 65% 0.00in /  0mm
02:55 44.0 °F /  6.7 °C 33.0 °F /  0.6 °C 29.40in /  995.5hPa SW 7.0mph /  11.3km/h 13.0mph /  20.9km/h 65% 0.00in /  0mm
03:04 44.1 °F /  6.7 °C 33.1 °F /  0.6 °C 29.40in /  995.5hPa WSW 6.0mph /  9.7km/h 17.0mph /  27.4km/h 65% 0.00in /  0mm
03:09 44.1 °F /  6.7 °C 33.5 °F /  0.8 °C 29.40in /  995.5hPa WSW 6.0mph /  9.7km/h 15.0mph /  24.1km/h 66% 0.00in /  0mm
03:14 44.1 °F /  6.7 °C 33.5 °F /  0.8 °C 29.39in /  995.1hPa WSW 6.0mph /  9.7km/h 12.0mph /  19.3km/h 66% 0.00in /  0mm
03:19 44.1 °F /  6.7 °C 33.5 °F /  0.8 °C 29.39in /  995.1hPa WSW 7.0mph /  11.3km/h 12.0mph /  19.3km/h 66% 0.00in /  0mm
03:24 44.1 °F /  6.7 °C 33.8 °F /  1 °C 29.39in /  995.1hPa SW 8.0mph /  12.9km/h 14.0mph /  22.5km/h 67% 0.00in /  0mm
03:29 44.1 °F /  6.7 °C 33.8 °F /  1 °C 29.39in /  995.1hPa WSW 6.0mph /  9.7km/h 14.0mph /  22.5km/h 67% 0.00in /  0mm
03:34 44.0 °F /  6.7 °C 34.1 °F /  1.2 °C 29.39in /  995.1hPa WSW 5.0mph /  8km/h 14.0mph /  22.5km/h 68% 0.00in /  0mm
03:40 44.0 °F /  6.7 °C 34.1 °F /  1.2 °C 29.39in /  995.1hPa WSW 7.0mph /  11.3km/h 14.0mph /  22.5km/h 68% 0.00in /  0mm
03:49 43.9 °F /  6.6 °C 34.4 °F /  1.3 °C 29.39in /  995.1hPa SW 6.0mph /  9.7km/h 13.0mph /  20.9km/h 69% 0.00in /  0mm
03:54 43.8 °F /  6.6 °C 34.3 °F /  1.3 °C 29.39in /  995.1hPa WSW 5.0mph /  8km/h 13.0mph /  20.9km/h 69% 0.00in /  0mm
04:00 43.8 °F /  6.6 °C 34.3 °F /  1.3 °C 29.39in /  995.1hPa WSW 6.0mph /  9.7km/h 11.0mph /  17.7km/h 69% 0.00in /  0mm
04:09 43.8 °F /  6.6 °C 34.7 °F /  1.5 °C 29.39in /  995.1hPa WSW 3.0mph /  4.8km/h 12.0mph /  19.3km/h 70% 0.00in /  0mm
04:14 43.7 °F /  6.5 °C 34.6 °F /  1.4 °C 29.39in /  995.1hPa WSW 5.0mph /  8km/h 8.0mph /  12.9km/h 70% 0.00in /  0mm
04:19 43.7 °F /  6.5 °C 34.9 °F /  1.6 °C 29.38in /  994.8hPa SW 5.0mph /  8km/h 11.0mph /  17.7km/h 71% 0.00in /  0mm
04:24 43.6 °F /  6.4 °C 34.8 °F /  1.6 °C 29.39in /  995.1hPa WSW 6.0mph /  9.7km/h 13.0mph /  20.9km/h 71% 0.00in /  0mm
04:29 43.6 °F /  6.4 °C 34.8 °F /  1.6 °C 29.39in /  995.1hPa WSW 6.0mph /  9.7km/h 13.0mph /  20.9km/h 71% 0.00in /  0mm
04:34 43.6 °F /  6.4 °C 34.8 °F /  1.6 °C 29.38in /  994.8hPa WSW 7.0mph /  11.3km/h 13.0mph /  20.9km/h 71% 0.00in /  0mm
04:40 43.6 °F /  6.4 °C 35.2 °F /  1.8 °C 29.38in /  994.8hPa WSW 8.0mph /  12.9km/h 13.0mph /  20.9km/h 72% 0.00in /  0mm
04:49 43.3 °F /  6.3 °C 35.2 °F /  1.8 °C 29.38in /  994.8hPa WSW 6.0mph /  9.7km/h 16.0mph /  25.7km/h 73% 0.00in /  0mm
04:54 43.3 °F /  6.3 °C 35.2 °F /  1.8 °C 29.38in /  994.8hPa West 7.0mph /  11.3km/h 15.0mph /  24.1km/h 73% 0.00in /  0mm
05:04 43.3 °F /  6.3 °C 35.2 °F /  1.8 °C 29.38in /  994.8hPa West 8.0mph /  12.9km/h 17.0mph /  27.4km/h 73% 0.00in /  0mm
05:09 43.1 °F /  6.2 °C 35.4 °F /  1.9 °C 29.38in /  994.8hPa WSW 8.0mph /  12.9km/h 17.0mph /  27.4km/h 74% 0.00in /  0mm
05:19 42.7 °F /  5.9 °C 35.7 °F /  2.1 °C 29.38in /  994.8hPa West 11.0mph /  17.7km/h 17.0mph /  27.4km/h 76% 0.00in /  0mm
05:24 42.5 °F /  5.8 °C 35.5 °F /  1.9 °C 29.37in /  994.5hPa WSW 10.0mph /  16.1km/h 17.0mph /  27.4km/h 76% 0.01in /  0.3mm
05:29 42.3 °F /  5.7 °C 35.6 °F /  2 °C 29.38in /  994.8hPa West 7.0mph /  11.3km/h 14.0mph /  22.5km/h 77% 0.01in /  0.3mm
05:35 42.2 °F /  5.7 °C 35.5 °F /  1.9 °C 29.38in /  994.8hPa WSW 8.0mph /  12.9km/h 13.0mph /  20.9km/h 77% 0.01in /  0.3mm
05:45 42.0 °F /  5.6 °C 35.6 °F /  2 °C 29.38in /  994.8hPa West 7.0mph /  11.3km/h 16.0mph /  25.7km/h 78% 0.01in /  0.3mm
05:54 41.7 °F /  5.4 °C 35.7 °F /  2.1 °C 29.38in /  994.8hPa WSW 6.0mph /  9.7km/h 12.0mph /  19.3km/h 79% 0.01in /  0.3mm
06:04 41.4 °F /  5.2 °C 35.7 °F /  2.1 °C 29.37in /  994.5hPa West 6.0mph /  9.7km/h 11.0mph /  17.7km/h 80% 0.01in /  0.3mm
06:10 41.4 °F /  5.2 °C 35.7 °F /  2.1 °C 29.37in /  994.5hPa WSW 6.0mph /  9.7km/h 16.0mph /  25.7km/h 80% 0.02in /  0.5mm
06:19 41.2 °F /  5.1 °C 35.8 °F /  2.1 °C 29.37in /  994.5hPa WSW 7.0mph /  11.3km/h 10.0mph /  16.1km/h 81% 0.02in /  0.5mm
06:24 41.1 °F /  5.1 °C 35.7 °F /  2.1 °C 29.38in /  994.8hPa WSW 6.0mph /  9.7km/h 11.0mph /  17.7km/h 81% 0.03in /  0.8mm
06:29 41.1 °F /  5.1 °C 35.7 °F /  2.1 °C 29.38in /  994.8hPa WSW 6.0mph /  9.7km/h 12.0mph /  19.3km/h 81% 0.03in /  0.8mm
06:34 41.0 °F /  5 °C 35.6 °F /  2 °C 29.38in /  994.8hPa WSW 5.0mph /  8km/h 12.0mph /  19.3km/h 81% 0.03in /  0.8mm
06:45 40.8 °F /  4.9 °C 35.7 °F /  2.1 °C 29.37in /  994.5hPa WSW 4.0mph /  6.4km/h 11.0mph /  17.7km/h 82% 0.03in /  0.8mm
06:50 40.8 °F /  4.9 °C 35.7 °F /  2.1 °C 29.38in /  994.8hPa WSW 3.0mph /  4.8km/h 11.0mph /  17.7km/h 82% 0.04in /  1mm
06:59 40.7 °F /  4.8 °C 35.9 °F /  2.2 °C 29.38in /  994.8hPa WSW 6.0mph /  9.7km/h 12.0mph /  19.3km/h 83% 0.05in /  1.3mm
07:04 40.7 °F /  4.8 °C 35.9 °F /  2.2 °C 29.38in /  994.8hPa WSW 6.0mph /  9.7km/h 12.0mph /  19.3km/h 83% 0.05in /  1.3mm
07:14 40.7 °F /  4.8 °C 35.9 °F /  2.2 °C 29.38in /  994.8hPa WSW 6.0mph /  9.7km/h 13.0mph /  20.9km/h 83% 0.05in /  1.3mm
07:19 40.7 °F /  4.8 °C 35.9 °F /  2.2 °C 29.38in /  994.8hPa WSW 5.0mph /  8km/h 11.0mph /  17.7km/h 83% 0.05in /  1.3mm
07:24 40.6 °F /  4.8 °C 35.8 °F /  2.1 °C 29.38in /  994.8hPa WSW 5.0mph /  8km/h 11.0mph /  17.7km/h 83% 0.06in /  1.5mm
07:29 40.6 °F /  4.8 °C 35.8 °F /  2.1 °C 29.38in /  994.8hPa SW 7.0mph /  11.3km/h 12.0mph /  19.3km/h 83% 0.06in /  1.5mm
07:34 40.6 °F /  4.8 °C 35.8 °F /  2.1 °C 29.38in /  994.8hPa WSW 6.0mph /  9.7km/h 16.0mph /  25.7km/h 83% 0.07in /  1.8mm
07:39 40.5 °F /  4.7 °C 35.7 °F /  2.1 °C 29.38in /  994.8hPa West 7.0mph /  11.3km/h 16.0mph /  25.7km/h 83% 0.07in /  1.8mm
07:44 40.4 °F /  4.7 °C 35.7 °F /  2.1 °C 29.38in /  994.8hPa WSW 7.0mph /  11.3km/h 15.0mph /  24.1km/h 83% 0.07in /  1.8mm
07:49 40.3 °F /  4.6 °C 35.6 °F /  2 °C 29.38in /  994.8hPa WSW 8.0mph /  12.9km/h 15.0mph /  24.1km/h 83% 0.07in /  1.8mm
07:54 40.2 °F /  4.6 °C 35.5 °F /  1.9 °C 29.38in /  994.8hPa WSW 6.0mph /  9.7km/h 15.0mph /  24.1km/h 83% 0.07in /  1.8mm
07:59 40.0 °F /  4.4 °C 35.3 °F /  1.8 °C 29.38in /  994.8hPa West 7.0mph /  11.3km/h 12.0mph /  19.3km/h 83% 0.08in /  2mm
08:04 39.9 °F /  4.4 °C 35.5 °F /  1.9 °C 29.38in /  994.8hPa West 9.0mph /  14.5km/h 14.0mph /  22.5km/h 84% 0.09in /  2.3mm
08:09 39.8 °F /  4.3 °C 35.4 °F /  1.9 °C 29.38in /  994.8hPa WSW 4.0mph /  6.4km/h 14.0mph /  22.5km/h 84% 0.09in /  2.3mm
08:14 39.7 °F /  4.3 °C 35.3 °F /  1.8 °C 29.38in /  994.8hPa West 7.0mph /  11.3km/h 12.0mph /  19.3km/h 84% 0.09in /  2.3mm
08:19 39.7 °F /  4.3 °C 35.6 °F /  2 °C 29.38in /  994.8hPa SW 6.0mph /  9.7km/h 13.0mph /  20.9km/h 85% 0.09in /  2.3mm
08:24 39.7 °F /  4.3 °C 35.6 °F /  2 °C 29.38in /  994.8hPa WSW 5.0mph /  8km/h 13.0mph /  20.9km/h 85% 0.09in /  2.3mm
08:29 39.6 °F /  4.2 °C 35.5 °F /  1.9 °C 29.38in /  994.8hPa WSW 4.0mph /  6.4km/h 12.0mph /  19.3km/h 85% 0.09in /  2.3mm
08:34 39.5 °F /  4.2 °C 35.4 °F /  1.9 °C 29.38in /  994.8hPa WSW 6.0mph /  9.7km/h 13.0mph /  20.9km/h 85% 0.09in /  2.3mm
08:44 39.4 °F /  4.1 °C 35.3 °F /  1.8 °C 29.38in /  994.8hPa WSW 7.0mph /  11.3km/h 14.0mph /  22.5km/h 85% 0.10in /  2.5mm
08:49 39.4 °F /  4.1 °C 35.0 °F /  1.7 °C 29.38in /  994.8hPa WSW 6.0mph /  9.7km/h 13.0mph /  20.9km/h 84% 0.10in /  2.5mm
08:54 39.4 °F /  4.1 °C 35.0 °F /  1.7 °C 29.38in /  994.8hPa WSW 5.0mph /  8km/h 12.0mph /  19.3km/h 84% 0.10in /  2.5mm
09:00 39.3 °F /  4.1 °C 34.9 °F /  1.6 °C 29.38in /  994.8hPa WSW 6.0mph /  9.7km/h 11.0mph /  17.7km/h 84% 0.10in /  2.5mm
09:09 39.3 °F /  4.1 °C 34.9 °F /  1.6 °C 29.38in /  994.8hPa West 6.0mph /  9.7km/h 14.0mph /  22.5km/h 84% 0.11in /  2.8mm
09:14 39.3 °F /  4.1 °C 34.9 °F /  1.6 °C 29.38in /  994.8hPa WSW 6.0mph /  9.7km/h 14.0mph /  22.5km/h 84% 0.11in /  2.8mm
09:19 39.2 °F /  4 °C 34.8 °F /  1.6 °C 29.38in /  994.8hPa WSW 6.0mph /  9.7km/h 14.0mph /  22.5km/h 84% 0.11in /  2.8mm
09:24 39.2 °F /  4 °C 35.1 °F /  1.7 °C 29.38in /  994.8hPa WSW 5.0mph /  8km/h 14.0mph /  22.5km/h 85% 0.11in /  2.8mm
09:29 39.0 °F /  3.9 °C 34.9 °F /  1.6 °C 29.38in /  994.8hPa WSW 6.0mph /  9.7km/h 11.0mph /  17.7km/h 85% 0.11in /  2.8mm
09:34 39.0 °F /  3.9 °C 34.9 °F /  1.6 °C 29.38in /  994.8hPa WSW 5.0mph /  8km/h 12.0mph /  19.3km/h 85% 0.11in /  2.8mm
09:44 39.1 °F /  3.9 °C 35.0 °F /  1.7 °C 29.38in /  994.8hPa WSW 6.0mph /  9.7km/h 13.0mph /  20.9km/h 85% 0.12in /  3mm
09:49 39.1 °F /  3.9 °C 35.0 °F /  1.7 °C 29.38in /  994.8hPa SW 6.0mph /  9.7km/h 11.0mph /  17.7km/h 85% 0.12in /  3mm
09:54 39.1 °F /  3.9 °C 35.0 °F /  1.7 °C 29.38in /  994.8hPa WSW 5.0mph /  8km/h 12.0mph /  19.3km/h 85% 0.12in /  3mm
09:59 39.2 °F /  4 °C 35.1 °F /  1.7 °C 29.38in /  994.8hPa WSW 6.0mph /  9.7km/h 12.0mph /  19.3km/h 85% 0.12in /  3mm
10:04 39.1 °F /  3.9 °C 35.0 °F /  1.7 °C 29.38in /  994.8hPa WSW 6.0mph /  9.7km/h 15.0mph /  24.1km/h 85% 0.13in /  3.3mm
10:09 39.3 °F /  4.1 °C 35.2 °F /  1.8 °C 29.38in /  994.8hPa WSW 7.0mph /  11.3km/h 15.0mph /  24.1km/h 85% 0.13in /  3.3mm
10:14 39.3 °F /  4.1 °C 34.9 °F /  1.6 °C 29.37in /  994.5hPa WSW 9.0mph /  14.5km/h 16.0mph /  25.7km/h 84% 0.13in /  3.3mm
10:19 39.4 °F /  4.1 °C 35.0 °F /  1.7 °C 29.37in /  994.5hPa WSW 6.0mph /  9.7km/h 16.0mph /  25.7km/h 84% 0.13in /  3.3mm
10:24 39.5 °F /  4.2 °C 35.1 °F /  1.7 °C 29.37in /  994.5hPa WSW 6.0mph /  9.7km/h 15.0mph /  24.1km/h 84% 0.13in /  3.3mm
10:29 39.3 °F /  4.1 °C 34.9 °F /  1.6 °C 29.37in /  994.5hPa WSW 7.0mph /  11.3km/h 15.0mph /  24.1km/h 84% 0.13in /  3.3mm
10:34 39.4 °F /  4.1 °C 35.0 °F /  1.7 °C 29.37in /  994.5hPa WSW 7.0mph /  11.3km/h 17.0mph /  27.4km/h 84% 0.13in /  3.3mm
10:44 39.3 °F /  4.1 °C 34.9 °F /  1.6 °C 29.38in /  994.8hPa WSW 5.0mph /  8km/h 13.0mph /  20.9km/h 84% 0.13in /  3.3mm
10:50 39.3 °F /  4.1 °C 34.6 °F /  1.4 °C 29.38in /  994.8hPa WSW 8.0mph /  12.9km/h 14.0mph /  22.5km/h 83% 0.14in /  3.6mm
11:00 39.6 °F /  4.2 °C 35.2 °F /  1.8 °C 29.38in /  994.8hPa West 7.0mph /  11.3km/h 14.0mph /  22.5km/h 84% 0.14in /  3.6mm
11:09 39.7 °F /  4.3 °C 35.3 °F /  1.8 °C 29.38in /  994.8hPa WSW 9.0mph /  14.5km/h 14.0mph /  22.5km/h 84% 0.15in /  3.8mm
11:15 39.5 °F /  4.2 °C 35.1 °F /  1.7 °C 29.38in /  994.8hPa West 5.0mph /  8km/h 13.0mph /  20.9km/h 84% 0.15in /  3.8mm
11:20 39.3 °F /  4.1 °C 34.9 °F /  1.6 °C 29.38in /  994.8hPa WSW 5.0mph /  8km/h 14.0mph /  22.5km/h 84% 0.15in /  3.8mm
11:29 39.1 °F /  3.9 °C 34.7 °F /  1.5 °C 29.38in /  994.8hPa WSW 7.0mph /  11.3km/h 14.0mph /  22.5km/h 84% 0.15in /  3.8mm
11:34 39.1 °F /  3.9 °C 34.7 °F /  1.5 °C 29.38in /  994.8hPa SW 6.0mph /  9.7km/h 14.0mph /  22.5km/h 84% 0.16in /  4.1mm
11:40 39.2 °F /  4 °C 34.8 °F /  1.6 °C 29.38in /  994.8hPa SW 7.0mph /  11.3km/h 15.0mph /  24.1km/h 84% 0.16in /  4.1mm
11:54 39.4 °F /  4.1 °C 35.0 °F /  1.7 °C 29.38in /  994.8hPa West 7.0mph /  11.3km/h 15.0mph /  24.1km/h 84% 0.16in /  4.1mm
12:04 39.4 °F /  4.1 °C 35.0 °F /  1.7 °C 29.38in /  994.8hPa West 7.0mph /  11.3km/h 15.0mph /  24.1km/h 84% 0.17in /  4.3mm
12:09 39.5 °F /  4.2 °C 34.8 °F /  1.6 °C 29.38in /  994.8hPa WSW 7.0mph /  11.3km/h 13.0mph /  20.9km/h 83% 0.17in /  4.3mm
12:14 39.5 °F /  4.2 °C 34.8 °F /  1.6 °C 29.38in /  994.8hPa West 6.0mph /  9.7km/h 13.0mph /  20.9km/h 83% 0.17in /  4.3mm
12:19 39.7 °F /  4.3 °C 34.7 °F /  1.5 °C 29.38in /  994.8hPa WSW 10.0mph /  16.1km/h 18.0mph /  29km/h 82% 0.17in /  4.3mm
12:24 39.9 °F /  4.4 °C 34.5 °F /  1.4 °C 29.38in /  994.8hPa WSW 7.0mph /  11.3km/h 20.0mph /  32.2km/h 81% 0.17in /  4.3mm
12:34 40.1 °F /  4.5 °C 34.7 °F /  1.5 °C 29.38in /  994.8hPa WSW 7.0mph /  11.3km/h 15.0mph /  24.1km/h 81% 0.17in /  4.3mm
12:39 40.3 °F /  4.6 °C 34.9 °F /  1.6 °C 29.38in /  994.8hPa WSW 5.0mph /  8km/h 15.0mph /  24.1km/h 81% 0.17in /  4.3mm
12:44 40.5 °F /  4.7 °C 35.1 °F /  1.7 °C 29.38in /  994.8hPa WSW 7.0mph /  11.3km/h 13.0mph /  20.9km/h 81% 0.17in /  4.3mm
12:54 40.9 °F /  4.9 °C 35.2 °F /  1.8 °C 29.38in /  994.8hPa WSW 7.0mph /  11.3km/h 13.0mph /  20.9km/h 80% 0.17in /  4.3mm
12:59 41.0 °F /  5 °C 35.3 °F /  1.8 °C 29.38in /  994.8hPa WSW 8.0mph /  12.9km/h 16.0mph /  25.7km/h 80% 0.17in /  4.3mm
13:04 41.1 °F /  5.1 °C 35.4 °F /  1.9 °C 29.38in /  994.8hPa WSW 6.0mph /  9.7km/h 16.0mph /  25.7km/h 80% 0.17in /  4.3mm
13:09 41.3 °F /  5.2 °C 35.6 °F /  2 °C 29.38in /  994.8hPa WSW 5.0mph /  8km/h 13.0mph /  20.9km/h 80% 0.17in /  4.3mm
13:14 41.2 °F /  5.1 °C 35.5 °F /  1.9 °C 29.38in /  994.8hPa WSW 6.0mph /  9.7km/h 13.0mph /  20.9km/h 80% 0.17in /  4.3mm
13:19 41.1 °F /  5.1 °C 35.4 °F /  1.9 °C 29.38in /  994.8hPa West 6.0mph /  9.7km/h 13.0mph /  20.9km/h 80% 0.17in /  4.3mm
13:24 41.2 °F /  5.1 °C 35.2 °F /  1.8 °C 29.38in /  994.8hPa West 7.0mph /  11.3km/h 14.0mph /  22.5km/h 79% 0.17in /  4.3mm
13:34 41.2 °F /  5.1 °C 35.2 °F /  1.8 °C 29.38in /  994.8hPa WSW 7.0mph /  11.3km/h 13.0mph /  20.9km/h 79% 0.17in /  4.3mm
13:40 41.2 °F /  5.1 °C 35.5 °F /  1.9 °C 29.39in /  995.1hPa WSW 6.0mph /  9.7km/h 13.0mph /  20.9km/h 80% 0.18in /  4.6mm
13:50 41.1 °F /  5.1 °C 35.4 °F /  1.9 °C 29.39in /  995.1hPa WSW 7.0mph /  11.3km/h 16.0mph /  25.7km/h 80% 0.18in /  4.6mm
13:59 41.3 °F /  5.2 °C 35.3 °F /  1.8 °C 29.39in /  995.1hPa WSW 6.0mph /  9.7km/h 17.0mph /  27.4km/h 79% 0.19in /  4.8mm
14:04 41.5 °F /  5.3 °C 35.2 °F /  1.8 °C 29.39in /  995.1hPa WSW 6.0mph /  9.7km/h 16.0mph /  25.7km/h 78% 0.19in /  4.8mm
14:09 41.9 °F /  5.5 °C 35.5 °F /  1.9 °C 29.39in /  995.1hPa West 11.0mph /  17.7km/h 19.0mph /  30.6km/h 78% 0.19in /  4.8mm
14:14 42.2 °F /  5.7 °C 35.2 °F /  1.8 °C 29.39in /  995.1hPa WSW 9.0mph /  14.5km/h 19.0mph /  30.6km/h 76% 0.19in /  4.8mm
14:24 42.4 °F /  5.8 °C 35.0 °F /  1.7 °C 29.39in /  995.1hPa WSW 10.0mph /  16.1km/h 21.0mph /  33.8km/h 75% 0.19in /  4.8mm
14:29 42.3 °F /  5.7 °C 34.9 °F /  1.6 °C 29.39in /  995.1hPa WSW 8.0mph /  12.9km/h 21.0mph /  33.8km/h 75% 0.19in /  4.8mm
14:34 42.4 °F /  5.8 °C 35.0 °F /  1.7 °C 29.39in /  995.1hPa WSW 5.0mph /  8km/h 15.0mph /  24.1km/h 75% 0.19in /  4.8mm
14:40 42.5 °F /  5.8 °C 34.8 °F /  1.6 °C 29.39in /  995.1hPa WSW 10.0mph /  16.1km/h 18.0mph /  29km/h 74% 0.19in /  4.8mm
14:45 42.9 °F /  6.1 °C 35.5 °F /  1.9 °C 29.39in /  995.1hPa WSW 6.0mph /  9.7km/h 18.0mph /  29km/h 75% 0.19in /  4.8mm
14:54 43.6 °F /  6.4 °C 35.9 °F /  2.2 °C 29.39in /  995.1hPa West 8.0mph /  12.9km/h 20.0mph /  32.2km/h 74% 0.19in /  4.8mm
14:59 43.6 °F /  6.4 °C 35.5 °F /  1.9 °C 29.39in /  995.1hPa WSW 11.0mph /  17.7km/h 25.0mph /  40.2km/h 73% 0.19in /  4.8mm
15:10 43.5 °F /  6.4 °C 35.4 °F /  1.9 °C 29.39in /  995.1hPa West 11.0mph /  17.7km/h 18.0mph /  29km/h 73% 0.19in /  4.8mm
15:15 43.2 °F /  6.2 °C 34.8 °F /  1.6 °C 29.39in /  995.1hPa WSW 11.0mph /  17.7km/h 22.0mph /  35.4km/h 72% 0.19in /  4.8mm
15:24 42.9 °F /  6.1 °C 34.8 °F /  1.6 °C 29.40in /  995.5hPa WSW 9.0mph /  14.5km/h 18.0mph /  29km/h 73% 0.19in /  4.8mm
15:29 42.9 °F /  6.1 °C 34.8 °F /  1.6 °C 29.40in /  995.5hPa WSW 12.0mph /  19.3km/h 19.0mph /  30.6km/h 73% 0.19in /  4.8mm
15:40 42.7 °F /  5.9 °C 34.7 °F /  1.5 °C 29.41in /  995.8hPa WSW 9.0mph /  14.5km/h 19.0mph /  30.6km/h 73% 0.19in /  4.8mm
15:50 42.5 °F /  5.8 °C 34.5 °F /  1.4 °C 29.41in /  995.8hPa WSW 7.0mph /  11.3km/h 19.0mph /  30.6km/h 73% 0.19in /  4.8mm
16:00 42.3 °F /  5.7 °C 33.9 °F /  1.1 °C 29.41in /  995.8hPa WSW 12.0mph /  19.3km/h 25.0mph /  40.2km/h 72% 0.19in /  4.8mm
16:09 42.3 °F /  5.7 °C 34.3 °F /  1.3 °C 29.41in /  995.8hPa WSW 8.0mph /  12.9km/h 21.0mph /  33.8km/h 73% 0.19in /  4.8mm
16:14 42.2 °F /  5.7 °C 33.8 °F /  1 °C 29.41in /  995.8hPa WSW 8.0mph /  12.9km/h 19.0mph /  30.6km/h 72% 0.19in /  4.8mm
16:19 42.3 °F /  5.7 °C 33.9 °F /  1.1 °C 29.41in /  995.8hPa WSW 10.0mph /  16.1km/h 19.0mph /  30.6km/h 72% 0.19in /  4.8mm
16:24 42.3 °F /  5.7 °C 33.9 °F /  1.1 °C 29.41in /  995.8hPa West 9.0mph /  14.5km/h 24.0mph /  38.6km/h 72% 0.19in /  4.8mm
16:29 42.3 °F /  5.7 °C 33.6 °F /  0.9 °C 29.41in /  995.8hPa WSW 10.0mph /  16.1km/h 24.0mph /  38.6km/h 71% 0.19in /  4.8mm
16:39 42.4 °F /  5.8 °C 34.4 °F /  1.3 °C 29.41in /  995.8hPa SW 6.0mph /  9.7km/h 18.0mph /  29km/h 73% 0.19in /  4.8mm
16:49 42.4 °F /  5.8 °C 34.0 °F /  1.1 °C 29.42in /  996.2hPa WSW 10.0mph /  16.1km/h 19.0mph /  30.6km/h 72% 0.19in /  4.8mm
16:59 42.5 °F /  5.8 °C 34.1 °F /  1.2 °C 29.42in /  996.2hPa WSW 7.0mph /  11.3km/h 18.0mph /  29km/h 72% 0.19in /  4.8mm
17:05 42.4 °F /  5.8 °C 34.0 °F /  1.1 °C 29.42in /  996.2hPa WSW 7.0mph /  11.3km/h 16.0mph /  25.7km/h 72% 0.19in /  4.8mm
17:14 42.4 °F /  5.8 °C 34.0 °F /  1.1 °C 29.42in /  996.2hPa WSW 8.0mph /  12.9km/h 16.0mph /  25.7km/h 72% 0.19in /  4.8mm
17:24 42.5 °F /  5.8 °C 33.8 °F /  1 °C 29.43in /  996.5hPa SW 10.0mph /  16.1km/h 20.0mph /  32.2km/h 71% 0.19in /  4.8mm
17:34 42.3 °F /  5.7 °C 33.9 °F /  1.1 °C 29.43in /  996.5hPa WSW 7.0mph /  11.3km/h 15.0mph /  24.1km/h 72% 0.19in /  4.8mm
17:39 42.3 °F /  5.7 °C 33.9 °F /  1.1 °C 29.43in /  996.5hPa WSW 9.0mph /  14.5km/h 22.0mph /  35.4km/h 72% 0.19in /  4.8mm
17:44 42.4 °F /  5.8 °C 34.0 °F /  1.1 °C 29.43in /  996.5hPa WSW 6.0mph /  9.7km/h 22.0mph /  35.4km/h 72% 0.19in /  4.8mm
17:49 42.4 °F /  5.8 °C 34.0 °F /  1.1 °C 29.43in /  996.5hPa West 13.0mph /  20.9km/h 24.0mph /  38.6km/h 72% 0.19in /  4.8mm
17:54 42.4 °F /  5.8 °C 34.0 °F /  1.1 °C 29.44in /  996.8hPa West 10.0mph /  16.1km/h 24.0mph /  38.6km/h 72% 0.19in /  4.8mm
17:59 42.4 °F /  5.8 °C 34.0 °F /  1.1 °C 29.44in /  996.8hPa West 10.0mph /  16.1km/h 18.0mph /  29km/h 72% 0.19in /  4.8mm
18:04 42.2 °F /  5.7 °C 34.2 °F /  1.2 °C 29.44in /  996.8hPa WSW 8.0mph /  12.9km/h 19.0mph /  30.6km/h 73% 0.19in /  4.8mm
18:09 41.8 °F /  5.4 °C 34.1 °F /  1.2 °C 29.44in /  996.8hPa West 9.0mph /  14.5km/h 19.0mph /  30.6km/h 74% 0.19in /  4.8mm
18:14 41.6 °F /  5.3 °C 34.3 °F /  1.3 °C 29.44in /  996.8hPa WSW 6.0mph /  9.7km/h 16.0mph /  25.7km/h 75% 0.19in /  4.8mm
18:19 41.3 °F /  5.2 °C 34.3 °F /  1.3 °C 29.45in /  997.2hPa West 6.0mph /  9.7km/h 18.0mph /  29km/h 76% 0.19in /  4.8mm
18:24 41.1 °F /  5.1 °C 34.4 °F /  1.3 °C 29.45in /  997.2hPa WSW 8.0mph /  12.9km/h 18.0mph /  29km/h 77% 0.19in /  4.8mm
18:30 40.9 °F /  4.9 °C 34.6 °F /  1.4 °C 29.45in /  997.2hPa WSW 10.0mph /  16.1km/h 15.0mph /  24.1km/h 78% 0.19in /  4.8mm
18:40 40.7 °F /  4.8 °C 34.4 °F /  1.3 °C 29.45in /  997.2hPa WSW 8.0mph /  12.9km/h 18.0mph /  29km/h 78% 0.19in /  4.8mm
18:54 40.4 °F /  4.7 °C 34.7 °F /  1.5 °C 29.45in /  997.2hPa WSW 6.0mph /  9.7km/h 19.0mph /  30.6km/h 80% 0.19in /  4.8mm
18:59 39.9 °F /  4.4 °C 34.5 °F /  1.4 °C 29.46in /  997.5hPa SW 10.0mph /  16.1km/h 19.0mph /  30.6km/h 81% 0.19in /  4.8mm
19:04 39.6 °F /  4.2 °C 34.6 °F /  1.4 °C 29.46in /  997.5hPa WSW 7.0mph /  11.3km/h 18.0mph /  29km/h 82% 0.20in /  5.1mm
19:09 39.4 °F /  4.1 °C 34.7 °F /  1.5 °C 29.46in /  997.5hPa WSW 5.0mph /  8km/h 16.0mph /  25.7km/h 83% 0.21in /  5.3mm
19:14 39.3 °F /  4.1 °C 34.9 °F /  1.6 °C 29.46in /  997.5hPa WSW 4.0mph /  6.4km/h 15.0mph /  24.1km/h 84% 0.21in /  5.3mm
19:24 39.1 °F /  3.9 °C 34.7 °F /  1.5 °C 29.46in /  997.5hPa WSW 7.0mph /  11.3km/h 13.0mph /  20.9km/h 84% 0.21in /  5.3mm
19:29 39.1 °F /  3.9 °C 34.7 °F /  1.5 °C 29.47in /  997.9hPa WSW 7.0mph /  11.3km/h 13.0mph /  20.9km/h 84% 0.21in /  5.3mm
19:40 39.0 °F /  3.9 °C 34.9 °F /  1.6 °C 29.47in /  997.9hPa WSW 8.0mph /  12.9km/h 18.0mph /  29km/h 85% 0.21in /  5.3mm
19:49 39.1 °F /  3.9 °C 34.7 °F /  1.5 °C 29.47in /  997.9hPa WSW 7.0mph /  11.3km/h 13.0mph /  20.9km/h 84% 0.21in /  5.3mm
19:54 39.0 °F /  3.9 °C 34.6 °F /  1.4 °C 29.47in /  997.9hPa WSW 8.0mph /  12.9km/h 16.0mph /  25.7km/h 84% 0.21in /  5.3mm
19:59 38.9 °F /  3.8 °C 34.5 °F /  1.4 °C 29.48in /  998.2hPa West 7.0mph /  11.3km/h 16.0mph /  25.7km/h 84% 0.23in /  5.8mm
20:04 38.7 °F /  3.7 °C 34.3 °F /  1.3 °C 29.48in /  998.2hPa West 8.0mph /  12.9km/h 14.0mph /  22.5km/h 84% 0.24in /  6.1mm
20:09 38.4 °F /  3.6 °C 34.0 °F /  1.1 °C 29.48in /  998.2hPa West 5.0mph /  8km/h 13.0mph /  20.9km/h 84% 0.25in /  6.4mm
20:14 38.2 °F /  3.4 °C 34.1 °F /  1.2 °C 29.48in /  998.2hPa WSW 6.0mph /  9.7km/h 13.0mph /  20.9km/h 85% 0.27in /  6.9mm
20:19 38.1 °F /  3.4 °C 34.3 °F /  1.3 °C 29.48in /  998.2hPa WSW 5.0mph /  8km/h 12.0mph /  19.3km/h 86% 0.27in /  6.9mm
20:25 38.2 °F /  3.4 °C 34.4 °F /  1.3 °C 29.48in /  998.2hPa WSW 1.0mph /  1.6km/h 9.0mph /  14.5km/h 86% 0.27in /  6.9mm
20:34 38.3 °F /  3.5 °C 34.8 °F /  1.6 °C 29.49in /  998.5hPa WSW 7.0mph /  11.3km/h 12.0mph /  19.3km/h 87% 0.28in /  7.1mm
20:40 38.4 °F /  3.6 °C 34.6 °F /  1.4 °C 29.49in /  998.5hPa WSW 8.0mph /  12.9km/h 16.0mph /  25.7km/h 86% 0.29in /  7.4mm
20:49 38.2 °F /  3.4 °C 34.4 °F /  1.3 °C 29.49in /  998.5hPa West 6.0mph /  9.7km/h 14.0mph /  22.5km/h 86% 0.31in /  7.9mm
20:55 38.1 °F /  3.4 °C 34.6 °F /  1.4 °C 29.49in /  998.5hPa WSW 5.0mph /  8km/h 10.0mph /  16.1km/h 87% 0.32in /  8.1mm
21:04 38.0 °F /  3.3 °C 34.5 °F /  1.4 °C 29.49in /  998.5hPa WSW 4.0mph /  6.4km/h 10.0mph /  16.1km/h 87% 0.33in /  8.4mm
21:09 38.1 °F /  3.4 °C 34.6 °F /  1.4 °C 29.49in /  998.5hPa West 6.0mph /  9.7km/h 12.0mph /  19.3km/h 87% 0.34in /  8.6mm
21:14 38.1 °F /  3.4 °C 34.6 °F /  1.4 °C 29.49in /  998.5hPa West 7.0mph /  11.3km/h 12.0mph /  19.3km/h 87% 0.34in /  8.6mm
21:19 38.2 °F /  3.4 °C 34.7 °F /  1.5 °C 29.49in /  998.5hPa West 2.0mph /  3.2km/h 10.0mph /  16.1km/h 87% 0.35in /  8.9mm
21:24 38.1 °F /  3.4 °C 34.6 °F /  1.4 °C 29.49in /  998.5hPa WSW 3.0mph /  4.8km/h 11.0mph /  17.7km/h 87% 0.35in /  8.9mm
21:30 38.2 °F /  3.4 °C 34.7 °F /  1.5 °C 29.49in /  998.5hPa West 5.0mph /  8km/h 11.0mph /  17.7km/h 87% 0.35in /  8.9mm
21:40 38.3 °F /  3.5 °C 34.8 °F /  1.6 °C 29.49in /  998.5hPa West 1.0mph /  1.6km/h 11.0mph /  17.7km/h 87% 0.36in /  9.1mm
21:49 38.3 °F /  3.5 °C 34.8 °F /  1.6 °C 29.49in /  998.5hPa WSW 3.0mph /  4.8km/h 9.0mph /  14.5km/h 87% 0.37in /  9.4mm
21:54 38.3 °F /  3.5 °C 34.8 °F /  1.6 °C 29.50in /  998.9hPa WSW 4.0mph /  6.4km/h 9.0mph /  14.5km/h 87% 0.37in /  9.4mm
21:59 38.3 °F /  3.5 °C 34.8 °F /  1.6 °C 29.50in /  998.9hPa West 5.0mph /  8km/h 10.0mph /  16.1km/h 87% 0.37in /  9.4mm
22:04 38.3 °F /  3.5 °C 34.8 °F /  1.6 °C 29.50in /  998.9hPa West 6.0mph /  9.7km/h 11.0mph /  17.7km/h 87% 0.37in /  9.4mm
22:09 38.3 °F /  3.5 °C 34.8 °F /  1.6 °C 29.50in /  998.9hPa West 5.0mph /  8km/h 12.0mph /  19.3km/h 87% 0.38in /  9.7mm
22:14 38.2 °F /  3.4 °C 34.7 °F /  1.5 °C 29.50in /  998.9hPa WSW 5.0mph /  8km/h 12.0mph /  19.3km/h 87% 0.38in /  9.7mm
22:24 38.1 °F /  3.4 °C 34.6 °F /  1.4 °C 29.50in /  998.9hPa West 7.0mph /  11.3km/h 12.0mph /  19.3km/h 87% 0.38in /  9.7mm
22:30 38.0 °F /  3.3 °C 34.5 °F /  1.4 °C 29.50in /  998.9hPa WSW 3.0mph /  4.8km/h 11.0mph /  17.7km/h 87% 0.38in /  9.7mm
22:44 37.8 °F /  3.2 °C 34.3 °F /  1.3 °C 29.50in /  998.9hPa West 4.0mph /  6.4km/h 7.0mph /  11.3km/h 87% 0.39in /  9.9mm
22:50 37.6 °F /  3.1 °C 34.4 °F /  1.3 °C 29.50in /  998.9hPa SW 4.0mph /  6.4km/h 9.0mph /  14.5km/h 88% 0.39in /  9.9mm
23:00 37.5 °F /  3.1 °C 34.3 °F /  1.3 °C 29.50in /  998.9hPa WSW 5.0mph /  8km/h 9.0mph /  14.5km/h 88% 0.40in /  10.2mm
23:09 37.4 °F /  3 °C 34.2 °F /  1.2 °C 29.50in /  998.9hPa West 4.0mph /  6.4km/h 11.0mph /  17.7km/h 88% 0.41in /  10.4mm
23:19 37.4 °F /  3 °C 34.2 °F /  1.2 °C 29.50in /  998.9hPa WSW 7.0mph /  11.3km/h 13.0mph /  20.9km/h 88% 0.41in /  10.4mm
23:24 37.3 °F /  2.9 °C 34.1 °F /  1.2 °C 29.49in /  998.5hPa WSW 6.0mph /  9.7km/h 11.0mph /  17.7km/h 88% 0.41in /  10.4mm
23:29 37.4 °F /  3 °C 34.2 °F /  1.2 °C 29.49in /  998.5hPa WSW 7.0mph /  11.3km/h 14.0mph /  22.5km/h 88% 0.41in /  10.4mm
23:34 37.4 °F /  3 °C 34.2 °F /  1.2 °C 29.49in /  998.5hPa SW 5.0mph /  8km/h 14.0mph /  22.5km/h 88% 0.41in /  10.4mm
23:39 37.4 °F /  3 °C 34.2 °F /  1.2 °C 29.49in /  998.5hPa WSW 4.0mph /  6.4km/h 12.0mph /  19.3km/h 88% 0.41in /  10.4mm
23:50 37.4 °F /  3 °C 34.2 °F /  1.2 °C 29.49in /  998.5hPa WSW 6.0mph /  9.7km/h 11.0mph /  17.7km/h 88% 0.41in /  10.4mm
23:59 37.4 °F /  3 °C 34.2 °F /  1.2 °C 29.49in /  998.5hPa WSW 5.0mph /  8km/h 13.0mph /  20.9km/h 88% 0.41in /  10.4mm
Westford Weather
Compliments of Weather Underground

 
 
Current Radar Loop:

Copyright © WestfordWeather.net 2007-2014. All rights reserved.